Time;durP1;ratioP1;P1;durP2;ratioP2;P2;SDS_P1;SDS_P2;PMS_P1;PMS_P2;Temp;Humidity;BMP_temperature;BMP_pressure;BME280_temperature;BME280_humidity;BME280_pressure;Samples;Min_cycle;Max_cycle;Signal;HPM_P1;HPM_P2
2023/09/14 00:01:00;;;;;;;12.55;3.40;;;;;;;;;;4939830;28;20097;-71
2023/09/14 00:03:26;;;;;;;11.73;4.30;;;;;;;;;;4940075;28;20362;-71
2023/09/14 00:05:52;;;;;;;10.27;3.55;;;;;;;;;;4939858;28;20023;-71
2023/09/14 00:08:20;;;;;;;13.45;4.43;;;;;;;;;;4911297;28;20037;-72
2023/09/14 00:10:46;;;;;;;11.10;4.40;;;;;;;;;;4913022;28;20639;-71
2023/09/14 00:13:12;;;;;;;13.93;4.95;;;;;;;;;;4915719;28;20039;-71
2023/09/14 00:15:42;;;;;;;11.70;4.50;;;;;;;;;;4904222;28;20023;-71
2023/09/14 00:18:09;;;;;;;11.02;3.78;;;;;;;;;;4913700;28;20026;-71
2023/09/14 00:20:35;;;;;;;16.27;4.22;;;;;;;;;;4911111;28;20484;-71
2023/09/14 00:23:03;;;;;;;13.02;4.63;;;;;;;;;;4911268;28;20136;-72
2023/09/14 00:25:29;;;;;;;12.38;3.95;;;;;;;;;;4910088;28;20027;-70
2023/09/14 00:27:55;;;;;;;11.10;4.15;;;;;;;;;;4914162;28;20042;-70
2023/09/14 00:30:22;;;;;;;11.02;3.80;;;;;;;;;;4910551;28;20646;-70
2023/09/14 00:32:50;;;;;;;11.32;4.18;;;;;;;;;;4906329;28;20117;-70
2023/09/14 00:35:18;;;;;;;11.35;4.30;;;;;;;;;;4912326;28;20295;-70
2023/09/14 00:37:45;;;;;;;15.43;4.20;;;;;;;;;;4911426;28;20116;-70
2023/09/14 00:40:11;;;;;;;11.98;4.60;;;;;;;;;;4916858;28;20034;-70
2023/09/14 00:42:41;;;;;;;11.00;4.30;;;;;;;;;;4910794;28;20694;-72
2023/09/14 00:45:14;;;;;;;11.90;4.60;;;;;;;;;;4946724;28;20034;-70
2023/09/14 00:47:45;;;;;;;12.07;4.65;;;;;;;;;;4944032;28;20031;-70
2023/09/14 00:50:15;;;;;;;12.35;4.65;;;;;;;;;;4943614;28;20391;-70
2023/09/14 00:52:42;;;;;;;14.45;4.40;;;;;;;;;;4942706;28;20495;-70
2023/09/14 00:55:08;;;;;;;9.98;3.92;;;;;;;;;;4948989;28;20019;-70
2023/09/14 00:57:35;;;;;;;11.02;4.43;;;;;;;;;;4946056;28;20042;-70
2023/09/14 01:00:05;;;;;;;13.35;4.05;;;;;;;;;;4948029;28;20031;-70
2023/09/14 01:02:33;;;;;;;9.38;3.47;;;;;;;;;;4941779;28;20023;-70
2023/09/14 01:05:00;;;;;;;10.48;3.63;;;;;;;;;;4940999;28;20038;-70
2023/09/14 01:07:27;;;;;;;11.00;4.40;;;;;;;;;;4940572;28;20460;-70
2023/09/14 01:09:53;;;;;;;9.50;4.30;;;;;;;;;;4944814;28;20576;-70
2023/09/14 01:12:19;;;;;;;14.48;4.65;;;;;;;;;;4938871;28;20070;-70
2023/09/14 01:14:48;;;;;;;9.80;3.78;;;;;;;;;;4941610;28;20057;-70
2023/09/14 01:17:15;;;;;;;11.75;4.30;;;;;;;;;;4943121;28;20085;-71
2023/09/14 01:19:54;;;;;;;12.82;4.35;;;;;;;;;;4939154;28;20041;-70
2023/09/14 01:22:35;;;;;;;10.18;4.13;;;;;;;;;;4940639;28;20027;-70
2023/09/14 01:25:24;;;;;;;11.82;4.07;;;;;;;;;;4948307;28;20198;-71
2023/09/14 01:27:50;;;;;;;11.95;4.47;;;;;;;;;;4943670;28;20054;-71
2023/09/14 01:30:16;;;;;;;12.35;4.20;;;;;;;;;;4945335;28;20035;-71
2023/09/14 01:32:43;;;;;;;11.48;4.18;;;;;;;;;;4945206;28;20560;-70
2023/09/14 01:35:09;;;;;;;15.20;4.40;;;;;;;;;;4949222;28;20026;-70
2023/09/14 01:37:35;;;;;;;15.00;4.55;;;;;;;;;;4943833;28;20509;-70
2023/09/14 01:40:06;;;;;;;14.75;4.60;;;;;;;;;;4942712;28;20067;-70
2023/09/14 01:42:32;;;;;;;11.98;4.13;;;;;;;;;;4946092;28;20022;-70
2023/09/14 01:44:58;;;;;;;12.77;4.57;;;;;;;;;;4947852;28;20145;-70
2023/09/14 01:47:25;;;;;;;10.38;4.28;;;;;;;;;;4945392;28;20030;-70
2023/09/14 01:49:52;;;;;;;12.80;4.28;;;;;;;;;;4943372;28;20549;-72
2023/09/14 01:52:18;;;;;;;9.90;4.03;;;;;;;;;;4947292;28;20035;-71
2023/09/14 01:54:44;;;;;;;10.20;4.07;;;;;;;;;;4941824;28;20615;-70
2023/09/14 01:57:10;;;;;;;13.75;4.72;;;;;;;;;;4950204;28;20125;-70
2023/09/14 01:59:36;;;;;;;11.57;4.40;;;;;;;;;;4944571;28;20059;-70
2023/09/14 02:02:03;;;;;;;12.85;4.32;;;;;;;;;;4943708;28;20078;-70
2023/09/14 02:04:29;;;;;;;10.52;4.13;;;;;;;;;;4942546;28;20133;-70
2023/09/14 02:06:55;;;;;;;12.30;4.55;;;;;;;;;;4947870;28;20070;-73
2023/09/14 02:09:21;;;;;;;11.23;4.10;;;;;;;;;;4941707;28;20027;-70
2023/09/14 02:11:47;;;;;;;11.80;4.10;;;;;;;;;;4947623;28;20033;-71
2023/09/14 02:14:13;;;;;;;13.93;4.43;;;;;;;;;;4942241;28;20664;-71
2023/09/14 02:16:39;;;;;;;8.60;3.75;;;;;;;;;;4945474;28;20035;-72
2023/09/14 02:19:05;;;;;;;9.15;3.67;;;;;;;;;;4945890;28;20398;-70
2023/09/14 02:21:31;;;;;;;9.23;3.70;;;;;;;;;;4941213;28;20026;-71
2023/09/14 02:23:58;;;;;;;9.15;3.50;;;;;;;;;;4941237;28;20187;-70
2023/09/14 02:26:24;;;;;;;8.50;3.33;;;;;;;;;;4945377;28;20045;-69
2023/09/14 02:28:50;;;;;;;12.50;3.88;;;;;;;;;;4942902;28;20702;-72
2023/09/14 02:31:17;;;;;;;10.13;4.00;;;;;;;;;;4947173;28;20036;-70
2023/09/14 02:33:44;;;;;;;10.13;3.90;;;;;;;;;;4942130;28;20137;-70
2023/09/14 02:36:10;;;;;;;12.25;4.38;;;;;;;;;;4945876;28;20474;-70
2023/09/14 02:38:36;;;;;;;11.23;4.28;;;;;;;;;;4941550;28;20591;-70
2023/09/14 02:41:02;;;;;;;11.35;4.28;;;;;;;;;;4946516;28;20871;-70
2023/09/14 02:43:28;;;;;;;11.63;4.32;;;;;;;;;;4938491;28;20500;-72
2023/09/14 02:45:54;;;;;;;12.55;4.57;;;;;;;;;;4945905;28;20521;-69
2023/09/14 02:48:20;;;;;;;11.13;4.13;;;;;;;;;;4944455;28;20684;-70
2023/09/14 02:50:47;;;;;;;10.20;3.97;;;;;;;;;;4944167;28;20252;-70
2023/09/14 02:53:13;;;;;;;9.10;4.07;;;;;;;;;;4943257;28;20043;-70
2023/09/14 02:55:39;;;;;;;10.88;4.55;;;;;;;;;;4941360;28;20031;-70
2023/09/14 02:58:08;;;;;;;11.50;4.45;;;;;;;;;;4943705;28;20149;-69
2023/09/14 03:00:34;;;;;;;11.13;4.45;;;;;;;;;;4944918;28;20097;-72
2023/09/14 03:03:00;;;;;;;10.98;3.83;;;;;;;;;;4945528;28;20039;-72
2023/09/14 03:05:26;;;;;;;10.38;3.88;;;;;;;;;;4942966;28;20370;-70
2023/09/14 03:07:52;;;;;;;10.18;4.30;;;;;;;;;;4944384;28;20063;-71
2023/09/14 03:10:18;;;;;;;10.50;3.95;;;;;;;;;;4940105;28;20038;-70
2023/09/14 03:12:45;;;;;;;11.63;4.28;;;;;;;;;;4947506;28;20389;-70
2023/09/14 03:15:11;;;;;;;11.05;4.25;;;;;;;;;;4946374;28;20117;-70
2023/09/14 03:17:37;;;;;;;14.88;4.82;;;;;;;;;;4945713;28;20078;-70
2023/09/14 03:20:06;;;;;;;11.15;4.18;;;;;;;;;;4943030;28;20054;-70
2023/09/14 03:22:32;;;;;;;10.90;4.30;;;;;;;;;;4940005;28;20046;-70
2023/09/14 03:24:59;;;;;;;11.57;4.30;;;;;;;;;;4944595;28;20232;-70
2023/09/14 03:27:25;;;;;;;9.48;4.63;;;;;;;;;;4937865;28;20031;-70
2023/09/14 03:29:51;;;;;;;10.10;4.45;;;;;;;;;;4942583;28;20673;-70
2023/09/14 03:32:17;;;;;;;14.90;4.43;;;;;;;;;;4941307;28;20333;-70
2023/09/14 03:34:43;;;;;;;9.68;4.10;;;;;;;;;;4946522;28;20165;-70
2023/09/14 03:37:09;;;;;;;12.02;4.53;;;;;;;;;;4945797;28;20069;-70
2023/09/14 03:39:36;;;;;;;10.30;4.28;;;;;;;;;;4941359;28;20039;-70
2023/09/14 03:42:02;;;;;;;10.15;4.40;;;;;;;;;;4943842;28;20038;-70
2023/09/14 03:44:28;;;;;;;10.82;3.80;;;;;;;;;;4946168;28;20047;-69
2023/09/14 03:46:54;;;;;;;12.52;4.18;;;;;;;;;;4942141;28;20027;-69
2023/09/14 03:49:20;;;;;;;10.75;4.22;;;;;;;;;;4942578;28;20492;-70
2023/09/14 03:51:46;;;;;;;8.70;3.33;;;;;;;;;;4943697;28;20428;-70
2023/09/14 03:54:13;;;;;;;9.93;3.88;;;;;;;;;;4943404;28;20099;-70
2023/09/14 03:56:39;;;;;;;10.18;4.47;;;;;;;;;;4941949;28;20054;-70
2023/09/14 03:59:05;;;;;;;10.05;3.60;;;;;;;;;;4943690;28;20045;-70
2023/09/14 04:01:32;;;;;;;10.68;3.85;;;;;;;;;;4942179;28;20117;-70
2023/09/14 04:03:58;;;;;;;9.48;4.10;;;;;;;;;;4947346;28;20030;-70
2023/09/14 04:06:24;;;;;;;10.68;4.07;;;;;;;;;;4935963;28;20815;-70
2023/09/14 04:08:50;;;;;;;11.70;4.10;;;;;;;;;;4945151;28;20564;-70
2023/09/14 04:11:17;;;;;;;12.48;4.35;;;;;;;;;;4942421;28;20537;-70
2023/09/14 04:13:43;;;;;;;10.45;4.88;;;;;;;;;;4940790;28;20023;-70
2023/09/14 04:16:09;;;;;;;11.68;4.55;;;;;;;;;;4948319;28;20062;-70
2023/09/14 04:18:37;;;;;;;10.95;4.65;;;;;;;;;;4939722;28;20054;-70
2023/09/14 04:21:03;;;;;;;9.98;4.22;;;;;;;;;;4937745;28;20094;-70
2023/09/14 04:23:29;;;;;;;9.48;3.70;;;;;;;;;;4943798;28;20034;-70
2023/09/14 04:25:56;;;;;;;9.90;3.83;;;;;;;;;;4941976;28;20042;-70
2023/09/14 04:28:22;;;;;;;12.07;3.72;;;;;;;;;;4940274;28;20090;-70
2023/09/14 04:30:49;;;;;;;9.63;4.20;;;;;;;;;;4945413;28;20031;-70
2023/09/14 04:33:16;;;;;;;9.32;3.92;;;;;;;;;;4944194;28;20123;-70
2023/09/14 04:35:43;;;;;;;9.00;4.00;;;;;;;;;;4944951;28;20057;-70
2023/09/14 04:38:09;;;;;;;11.02;3.45;;;;;;;;;;4943417;28;20042;-70
2023/09/14 04:40:39;;;;;;;10.75;3.80;;;;;;;;;;4938795;28;20446;-70
2023/09/14 04:43:06;;;;;;;8.32;3.05;;;;;;;;;;4942417;28;20051;-70
2023/09/14 04:45:32;;;;;;;8.32;2.90;;;;;;;;;;4940673;28;20027;-71
2023/09/14 04:47:59;;;;;;;7.97;2.60;;;;;;;;;;4947162;28;20478;-70
2023/09/14 04:50:25;;;;;;;7.95;2.80;;;;;;;;;;4942685;28;20023;-71
2023/09/14 04:52:51;;;;;;;7.60;2.65;;;;;;;;;;4942031;28;20027;-71
2023/09/14 04:55:17;;;;;;;7.63;2.60;;;;;;;;;;4940316;28;20037;-70
2023/09/14 04:57:44;;;;;;;6.55;2.30;;;;;;;;;;4945240;28;20874;-70
2023/09/14 05:00:10;;;;;;;7.40;2.22;;;;;;;;;;4947337;28;20030;-70
2023/09/14 05:02:36;;;;;;;7.32;2.20;;;;;;;;;;4947630;28;20126;-70
2023/09/14 05:05:03;;;;;;;8.25;2.20;;;;;;;;;;4945082;28;20045;-70
2023/09/14 05:07:29;;;;;;;7.22;2.13;;;;;;;;;;4942798;28;20027;-70
2023/09/14 05:09:56;;;;;;;7.47;2.30;;;;;;;;;;4949369;28;20323;-70
2023/09/14 05:12:22;;;;;;;7.53;2.00;;;;;;;;;;4943355;28;20384;-70
2023/09/14 05:14:48;;;;;;;6.30;2.17;;;;;;;;;;4948924;28;20612;-70
2023/09/14 05:17:14;;;;;;;5.60;1.95;;;;;;;;;;4949806;28;20035;-71
2023/09/14 05:19:44;;;;;;;7.57;2.38;;;;;;;;;;4944599;28;20428;-71
2023/09/14 05:22:10;;;;;;;8.30;2.40;;;;;;;;;;4948851;28;20154;-71
2023/09/14 05:24:39;;;;;;;6.97;2.17;;;;;;;;;;4942416;28;20030;-70
2023/09/14 05:27:05;;;;;;;7.60;2.42;;;;;;;;;;4946753;28;20508;-71
2023/09/14 05:29:31;;;;;;;6.88;2.28;;;;;;;;;;4940791;28;20370;-70
2023/09/14 05:31:57;;;;;;;10.25;2.42;;;;;;;;;;4948130;28;20031;-71
2023/09/14 05:34:24;;;;;;;7.88;2.67;;;;;;;;;;4944658;28;20045;-70
2023/09/14 05:36:51;;;;;;;6.78;2.03;;;;;;;;;;4947118;28;20026;-70
2023/09/14 05:39:18;;;;;;;7.18;2.30;;;;;;;;;;4944368;28;20130;-72
2023/09/14 05:41:44;;;;;;;6.93;2.15;;;;;;;;;;4944943;28;20062;-70
2023/09/14 05:44:10;;;;;;;8.23;2.05;;;;;;;;;;4945582;28;20118;-70
2023/09/14 05:46:39;;;;;;;7.07;2.10;;;;;;;;;;4938503;28;20434;-71
2023/09/14 05:49:09;;;;;;;7.60;2.60;;;;;;;;;;4949724;28;20031;-72
2023/09/14 05:51:35;;;;;;;7.28;2.33;;;;;;;;;;4939254;28;20035;-72
2023/09/14 05:54:01;;;;;;;8.02;2.30;;;;;;;;;;4948682;28;20073;-72
2023/09/14 05:56:27;;;;;;;6.63;2.28;;;;;;;;;;4941260;28;20039;-72
2023/09/14 05:58:53;;;;;;;8.07;3.25;;;;;;;;;;4948778;28;20039;-72
2023/09/14 06:01:20;;;;;;;7.45;2.60;;;;;;;;;;4942609;28;20105;-72
2023/09/14 06:03:46;;;;;;;8.52;3.28;;;;;;;;;;4948653;28;20161;-72
2023/09/14 06:06:12;;;;;;;15.48;5.22;;;;;;;;;;4944346;28;20027;-72
2023/09/14 06:08:40;;;;;;;8.73;3.55;;;;;;;;;;4940679;28;20313;-71
2023/09/14 06:11:06;;;;;;;9.48;3.78;;;;;;;;;;4946213;28;20496;-71
2023/09/14 06:13:33;;;;;;;9.00;3.35;;;;;;;;;;4943375;28;20059;-71
2023/09/14 06:15:59;;;;;;;9.70;3.42;;;;;;;;;;4946924;28;20121;-71
2023/09/14 06:18:25;;;;;;;7.75;2.72;;;;;;;;;;4941626;28;20035;-70
2023/09/14 06:20:51;;;;;;;10.43;3.00;;;;;;;;;;4946427;28;20031;-71
2023/09/14 06:23:17;;;;;;;9.68;3.25;;;;;;;;;;4939946;28;20035;-71
2023/09/14 06:25:44;;;;;;;9.68;3.08;;;;;;;;;;4946049;28;20023;-70
2023/09/14 06:28:10;;;;;;;8.70;2.85;;;;;;;;;;4944086;28;20039;-70
2023/09/14 06:30:36;;;;;;;7.47;3.00;;;;;;;;;;4942745;28;20254;-71
2023/09/14 06:33:03;;;;;;;10.05;2.58;;;;;;;;;;4949787;28;20039;-71
2023/09/14 06:35:29;;;;;;;6.68;2.20;;;;;;;;;;4941899;28;20293;-72
2023/09/14 06:37:55;;;;;;;9.05;2.60;;;;;;;;;;4945433;28;20454;-72
2023/09/14 06:40:22;;;;;;;8.30;2.75;;;;;;;;;;4936734;28;20243;-70
2023/09/14 06:42:48;;;;;;;11.43;2.63;;;;;;;;;;4941942;28;20525;-72
2023/09/14 06:45:14;;;;;;;9.18;2.67;;;;;;;;;;4947441;28;20038;-72
2023/09/14 06:47:40;;;;;;;8.93;2.90;;;;;;;;;;4943580;28;20113;-72
2023/09/14 06:50:07;;;;;;;8.40;3.67;;;;;;;;;;4944080;28;20490;-72
2023/09/14 06:52:34;;;;;;;7.93;2.80;;;;;;;;;;4941276;28;20434;-72
2023/09/14 06:55:00;;;;;;;10.25;2.67;;;;;;;;;;4943808;28;20553;-73
2023/09/14 06:57:26;;;;;;;30.63;5.43;;;;;;;;;;4939675;28;20047;-72
2023/09/14 06:59:52;;;;;;;34.95;6.32;;;;;;;;;;4943120;28;20524;-72
2023/09/14 07:02:19;;;;;;;19.73;4.68;;;;;;;;;;4944819;28;20671;-71
2023/09/14 07:04:45;;;;;;;17.17;3.60;;;;;;;;;;4947734;28;20052;-71
2023/09/14 07:07:11;;;;;;;10.85;2.92;;;;;;;;;;4942877;28;20825;-71
2023/09/14 07:09:37;;;;;;;12.27;2.38;;;;;;;;;;4938133;28;21176;-71
2023/09/14 07:12:03;;;;;;;10.35;2.40;;;;;;;;;;4943093;28;20248;-71
2023/09/14 07:14:29;;;;;;;8.52;2.33;;;;;;;;;;4940812;28;20082;-71
2023/09/14 07:16:56;;;;;;;9.18;2.30;;;;;;;;;;4946129;28;20082;-71
2023/09/14 07:19:26;;;;;;;6.68;2.00;;;;;;;;;;4948167;28;20023;-70
2023/09/14 07:21:54;;;;;;;27.77;5.28;;;;;;;;;;4944679;28;20034;-71
2023/09/14 07:24:21;;;;;;;10.65;2.78;;;;;;;;;;4941699;28;20138;-71
2023/09/14 07:26:48;;;;;;;11.05;2.22;;;;;;;;;;4948579;28;20393;-73
2023/09/14 07:29:15;;;;;;;7.93;1.70;;;;;;;;;;4946775;28;20589;-71
2023/09/14 07:31:41;;;;;;;8.52;2.38;;;;;;;;;;4942574;28;20348;-71
2023/09/14 07:34:07;;;;;;;8.73;2.15;;;;;;;;;;4947188;28;20074;-71
2023/09/14 07:36:34;;;;;;;10.57;2.40;;;;;;;;;;4940851;28;20142;-71
2023/09/14 07:39:00;;;;;;;8.15;2.03;;;;;;;;;;4946316;28;20131;-71
2023/09/14 07:41:26;;;;;;;7.20;1.80;;;;;;;;;;4943054;28;20552;-71
2023/09/14 07:43:52;;;;;;;6.32;1.98;;;;;;;;;;4946124;28;20057;-71
2023/09/14 07:46:19;;;;;;;5.90;1.70;;;;;;;;;;4945976;28;20137;-71
2023/09/14 07:48:45;;;;;;;7.38;2.00;;;;;;;;;;4946691;28;20043;-71
2023/09/14 07:51:11;;;;;;;8.60;1.75;;;;;;;;;;4946994;28;20552;-71
2023/09/14 07:53:37;;;;;;;6.13;1.75;;;;;;;;;;4942670;28;20651;-71
2023/09/14 07:56:03;;;;;;;5.13;1.80;;;;;;;;;;4946480;28;20042;-72
2023/09/14 07:58:30;;;;;;;6.93;1.70;;;;;;;;;;4939829;28;20038;-72
2023/09/14 08:00:56;;;;;;;4.80;1.40;;;;;;;;;;4946485;28;20046;-71
2023/09/14 08:03:23;;;;;;;6.18;1.85;;;;;;;;;;4938535;28;20054;-71
2023/09/14 08:05:51;;;;;;;8.02;1.90;;;;;;;;;;4943518;28;20029;-71
2023/09/14 08:08:17;;;;;;;7.97;2.05;;;;;;;;;;4941370;28;20373;-71
2023/09/14 08:10:49;;;;;;;8.23;2.40;;;;;;;;;;4944437;28;20129;-71
2023/09/14 08:13:15;;;;;;;5.63;1.63;;;;;;;;;;4945908;28;20081;-71
2023/09/14 08:15:41;;;;;;;5.88;2.00;;;;;;;;;;4941810;28;20218;-71
2023/09/14 08:18:07;;;;;;;7.13;1.73;;;;;;;;;;4941983;28;20038;-71
2023/09/14 08:20:37;;;;;;;6.05;1.60;;;;;;;;;;4940630;28;20496;-71
2023/09/14 08:23:04;;;;;;;6.13;2.00;;;;;;;;;;4945913;28;20038;-71
2023/09/14 08:25:30;;;;;;;14.55;2.10;;;;;;;;;;4940904;28;20090;-71
2023/09/14 08:27:56;;;;;;;7.57;1.80;;;;;;;;;;4946326;28;20365;-71
2023/09/14 08:30:25;;;;;;;10.05;1.80;;;;;;;;;;4940386;28;20036;-71
2023/09/14 08:32:51;;;;;;;8.00;1.90;;;;;;;;;;4948275;28;20054;-71
2023/09/14 08:35:21;;;;;;;8.95;2.17;;;;;;;;;;4942560;28;20652;-71
2023/09/14 08:37:47;;;;;;;6.78;1.90;;;;;;;;;;4944247;28;20063;-71
2023/09/14 08:40:14;;;;;;;9.70;2.30;;;;;;;;;;4946636;28;20241;-71
2023/09/14 08:42:47;;;;;;;7.95;2.00;;;;;;;;;;4942969;28;20031;-71
2023/09/14 08:45:13;;;;;;;5.80;1.80;;;;;;;;;;4944407;28;20584;-71
2023/09/14 08:47:41;;;;;;;7.80;2.03;;;;;;;;;;4944568;28;20194;-71
2023/09/14 08:50:08;;;;;;;6.25;1.92;;;;;;;;;;4945782;28;20082;-71
2023/09/14 08:52:35;;;;;;;8.13;1.98;;;;;;;;;;4942269;28;20049;-71
2023/09/14 08:55:01;;;;;;;10.93;2.28;;;;;;;;;;4946330;28;20501;-72
2023/09/14 08:57:28;;;;;;;10.57;2.35;;;;;;;;;;4943494;28;20045;-71
2023/09/14 08:59:56;;;;;;;9.23;1.80;;;;;;;;;;4942625;28;20544;-70
2023/09/14 09:02:23;;;;;;;8.82;1.77;;;;;;;;;;4935327;28;20195;-70
2023/09/14 09:04:49;;;;;;;6.68;1.63;;;;;;;;;;4941051;28;20031;-70
2023/09/14 09:07:16;;;;;;;7.40;1.80;;;;;;;;;;4945027;28;20498;-70
2023/09/14 09:09:42;;;;;;;8.35;2.13;;;;;;;;;;4924335;28;20814;-70
2023/09/14 09:12:08;;;;;;;6.80;1.90;;;;;;;;;;4942457;28;20866;-70
2023/09/14 09:14:37;;;;;;;8.02;1.92;;;;;;;;;;4943175;28;20039;-70
2023/09/14 09:17:04;;;;;;;9.80;2.15;;;;;;;;;;4942276;28;20073;-71
2023/09/14 09:19:30;;;;;;;63.58;10.63;;;;;;;;;;4943616;28;20042;-70
2023/09/14 09:21:56;;;;;;;11.55;2.80;;;;;;;;;;4941941;28;20034;-71
2023/09/14 09:24:27;;;;;;;9.43;2.42;;;;;;;;;;4941122;28;20037;-70
2023/09/14 09:26:54;;;;;;;10.50;2.40;;;;;;;;;;4947854;28;20023;-71
2023/09/14 09:29:22;;;;;;;7.80;1.73;;;;;;;;;;4943249;28;20027;-71
2023/09/14 09:31:50;;;;;;;8.07;2.00;;;;;;;;;;4947095;28;20022;-71
2023/09/14 09:34:20;;;;;;;7.75;1.92;;;;;;;;;;4946304;28;20772;-71
2023/09/14 09:36:46;;;;;;;8.88;1.77;;;;;;;;;;4944229;28;20901;-71
2023/09/14 09:39:13;;;;;;;10.55;1.92;;;;;;;;;;4946447;28;20038;-71
2023/09/14 09:41:39;;;;;;;10.32;2.30;;;;;;;;;;4943019;28;20023;-71
2023/09/14 09:44:09;;;;;;;14.13;2.83;;;;;;;;;;4944796;28;20181;-71
2023/09/14 09:46:35;;;;;;;26.70;5.45;;;;;;;;;;4945059;28;20429;-71
2023/09/14 09:49:17;;;;;;;20.08;4.07;;;;;;;;;;4950548;28;20035;-71
2023/09/14 09:51:44;;;;;;;14.43;2.80;;;;;;;;;;4944153;28;20164;-71
2023/09/14 09:54:11;;;;;;;9.95;2.42;;;;;;;;;;4944785;28;20559;-71
2023/09/14 09:56:38;;;;;;;11.20;2.10;;;;;;;;;;4943563;28;20046;-71
2023/09/14 09:59:09;;;;;;;8.80;2.13;;;;;;;;;;4948123;28;20192;-71
2023/09/14 10:01:39;;;;;;;9.20;2.03;;;;;;;;;;4945872;28;20058;-71
2023/09/14 10:04:12;;;;;;;6.30;1.75;;;;;;;;;;4947152;28;20023;-71
2023/09/14 10:06:38;;;;;;;5.50;1.30;;;;;;;;;;4942427;28;20309;-71
2023/09/14 10:09:08;;;;;;;8.15;1.85;;;;;;;;;;4944220;28;20107;-71
2023/09/14 10:11:35;;;;;;;9.27;2.00;;;;;;;;;;4942899;28;20089;-71
2023/09/14 10:14:04;;;;;;;9.75;2.20;;;;;;;;;;4946996;28;20074;-70
2023/09/14 10:16:40;;;;;;;6.88;1.70;;;;;;;;;;4945744;28;20069;-71
2023/09/14 10:19:07;;;;;;;6.53;1.40;;;;;;;;;;4942607;28;20027;-71
2023/09/14 10:21:33;;;;;;;8.63;1.83;;;;;;;;;;4942557;28;20103;-71
2023/09/14 10:24:00;;;;;;;7.32;1.70;;;;;;;;;;4948294;28;20043;-71
2023/09/14 10:26:29;;;;;;;28.55;5.57;;;;;;;;;;4949392;28;20132;-70
2023/09/14 10:28:56;;;;;;;17.27;3.05;;;;;;;;;;4943634;28;20015;-71
2023/09/14 10:31:24;;;;;;;13.13;2.40;;;;;;;;;;4946019;28;20039;-71
2023/09/14 10:33:51;;;;;;;8.95;2.20;;;;;;;;;;4952767;28;20062;-71
2023/09/14 10:36:17;;;;;;;10.43;2.17;;;;;;;;;;4930935;28;20473;-71
2023/09/14 10:38:43;;;;;;;10.23;2.05;;;;;;;;;;4948180;28;20026;-71
2023/09/14 10:41:11;;;;;;;8.50;2.00;;;;;;;;;;4941293;28;20390;-71
2023/09/14 10:43:39;;;;;;;14.27;2.85;;;;;;;;;;4946284;28;20085;-71
2023/09/14 10:46:06;;;;;;;15.35;2.40;;;;;;;;;;4944190;28;20351;-71
2023/09/14 10:48:33;;;;;;;13.20;2.28;;;;;;;;;;4942504;28;20484;-71
2023/09/14 10:51:00;;;;;;;9.95;2.40;;;;;;;;;;4948160;28;20932;-71
2023/09/14 10:53:27;;;;;;;10.32;1.90;;;;;;;;;;4943594;28;20490;-71
2023/09/14 10:55:53;;;;;;;8.65;1.88;;;;;;;;;;4946827;28;20053;-72
2023/09/14 10:58:19;;;;;;;6.07;1.50;;;;;;;;;;4944789;28;20045;-71
2023/09/14 11:00:46;;;;;;;8.88;2.15;;;;;;;;;;4946028;28;20492;-71
2023/09/14 11:03:13;;;;;;;6.07;1.77;;;;;;;;;;4947384;28;20461;-71
2023/09/14 11:05:40;;;;;;;6.65;1.55;;;;;;;;;;4942818;28;20425;-71
2023/09/14 11:08:06;;;;;;;8.80;1.80;;;;;;;;;;4945504;28;20034;-71
2023/09/14 11:10:37;;;;;;;9.00;1.85;;;;;;;;;;4942288;28;20688;-71
2023/09/14 11:13:22;;;;;;;9.70;1.80;;;;;;;;;;4945082;28;20043;-74
2023/09/14 11:15:55;;;;;;;9.77;1.88;;;;;;;;;;4947743;28;20702;-74
2023/09/14 11:18:34;;;;;;;7.60;1.85;;;;;;;;;;4943721;28;20090;-72
2023/09/14 11:21:00;;;;;;;9.55;1.83;;;;;;;;;;4947305;28;20381;-72
2023/09/14 11:23:35;;;;;;;9.88;2.00;;;;;;;;;;4945833;28;20033;-72
2023/09/14 11:26:02;;;;;;;4.45;1.42;;;;;;;;;;4943430;28;20062;-71
2023/09/14 11:28:30;;;;;;;7.68;1.88;;;;;;;;;;4940843;28;20039;-72
2023/09/14 11:30:56;;;;;;;12.23;2.13;;;;;;;;;;4946522;28;20037;-72
2023/09/14 11:33:22;;;;;;;6.47;1.60;;;;;;;;;;4945202;28;20572;-73
2023/09/14 11:35:51;;;;;;;8.30;2.00;;;;;;;;;;4946808;28;20155;-72
2023/09/14 11:38:26;;;;;;;8.05;1.90;;;;;;;;;;4948194;28;20062;-73
2023/09/14 11:40:53;;;;;;;9.05;1.73;;;;;;;;;;4944163;28;20051;-71
2023/09/14 11:43:28;;;;;;;5.38;1.50;;;;;;;;;;4942330;28;20054;-71
2023/09/14 11:46:01;;;;;;;9.15;2.05;;;;;;;;;;4944529;28;20036;-71
2023/09/14 11:48:29;;;;;;;6.03;1.77;;;;;;;;;;4940007;28;20105;-72
2023/09/14 11:50:56;;;;;;;7.07;1.92;;;;;;;;;;4944706;28;20045;-72
2023/09/14 11:53:22;;;;;;;10.50;2.00;;;;;;;;;;4943270;28;20030;-72
2023/09/14 11:55:49;;;;;;;4.88;1.58;;;;;;;;;;4942561;28;20682;-71
2023/09/14 11:58:16;;;;;;;5.65;1.50;;;;;;;;;;4945978;28;20405;-72
2023/09/14 12:00:52;;;;;;;6.15;1.75;;;;;;;;;;4942657;28;20046;-72
2023/09/14 12:03:19;;;;;;;5.60;1.27;;;;;;;;;;4942009;28;20567;-72
2023/09/14 12:05:47;;;;;;;6.80;1.63;;;;;;;;;;4942452;28;20409;-71
2023/09/14 12:08:16;;;;;;;6.38;1.55;;;;;;;;;;4942763;28;20036;-72
2023/09/14 12:10:45;;;;;;;5.25;1.60;;;;;;;;;;4945270;28;20078;-71
2023/09/14 12:13:15;;;;;;;7.72;2.08;;;;;;;;;;4939815;28;20338;-71
2023/09/14 12:15:42;;;;;;;7.95;1.73;;;;;;;;;;4939321;28;20015;-72
2023/09/14 12:18:10;;;;;;;5.63;1.42;;;;;;;;;;4942668;28;20512;-72
2023/09/14 12:20:37;;;;;;;4.47;1.23;;;;;;;;;;4943296;28;20145;-71
2023/09/14 12:23:04;;;;;;;6.32;1.70;;;;;;;;;;4943625;28;20133;-72
2023/09/14 12:25:31;;;;;;;5.43;1.55;;;;;;;;;;4941048;28;20405;-72
2023/09/14 12:27:57;;;;;;;5.78;1.60;;;;;;;;;;4943820;28;20045;-72
2023/09/14 12:30:23;;;;;;;5.05;1.30;;;;;;;;;;4939902;28;20035;-71
2023/09/14 12:32:50;;;;;;;5.90;1.55;;;;;;;;;;4944411;28;20100;-71
2023/09/14 12:35:17;;;;;;;4.95;1.50;;;;;;;;;;4942546;28;20037;-71
2023/09/14 12:37:43;;;;;;;6.47;1.85;;;;;;;;;;4941826;28;20046;-71
2023/09/14 12:40:10;;;;;;;6.28;1.55;;;;;;;;;;4943631;28;20056;-71
2023/09/14 12:42:37;;;;;;;8.55;1.77;;;;;;;;;;4939524;28;20034;-71
2023/09/14 12:45:11;;;;;;;10.55;2.05;;;;;;;;;;4941299;28;20296;-73
2023/09/14 12:47:37;;;;;;;8.90;1.70;;;;;;;;;;4940649;28;20470;-72
2023/09/14 12:50:04;;;;;;;9.43;1.70;;;;;;;;;;4942408;28;20089;-72
2023/09/14 12:52:32;;;;;;;6.50;1.65;;;;;;;;;;4937970;28;20038;-72
2023/09/14 12:55:07;;;;;;;7.07;1.48;;;;;;;;;;4943399;28;20127;-72
2023/09/14 12:57:34;;;;;;;9.40;1.83;;;;;;;;;;4944798;28;20038;-73
2023/09/14 13:00:20;;;;;;;6.30;1.58;;;;;;;;;;4943409;28;20133;-72
2023/09/14 13:02:48;;;;;;;9.93;1.70;;;;;;;;;;4941001;28;20065;-72
2023/09/14 13:05:14;;;;;;;5.95;1.52;;;;;;;;;;4943317;28;20122;-72
2023/09/14 13:07:47;;;;;;;9.55;1.55;;;;;;;;;;4936572;28;20583;-72
2023/09/14 13:10:14;;;;;;;10.10;1.75;;;;;;;;;;4942757;28;20026;-72
2023/09/14 13:12:54;;;;;;;8.82;1.77;;;;;;;;;;4939438;28;20039;-71
2023/09/14 13:15:22;;;;;;;7.63;1.70;;;;;;;;;;4940363;28;20031;-72
2023/09/14 13:17:48;;;;;;;8.20;1.58;;;;;;;;;;4945156;28;20116;-74
2023/09/14 13:20:15;;;;;;;4.38;1.50;;;;;;;;;;4944627;28;20039;-74
2023/09/14 13:22:41;;;;;;;5.68;1.65;;;;;;;;;;4942066;28;20346;-73
2023/09/14 13:25:07;;;;;;;6.35;1.67;;;;;;;;;;4946164;28;20027;-74
2023/09/14 13:27:35;;;;;;;7.00;1.80;;;;;;;;;;4944276;28;20027;-74
2023/09/14 13:30:09;;;;;;;6.85;1.65;;;;;;;;;;4945326;28;20034;-74
2023/09/14 13:32:35;;;;;;;7.45;1.50;;;;;;;;;;4935541;28;20859;-73
2023/09/14 13:35:01;;;;;;;10.65;1.40;;;;;;;;;;4936257;28;20031;-74
2023/09/14 13:37:30;;;;;;;5.85;1.70;;;;;;;;;;4934165;28;20501;-74
2023/09/14 13:39:56;;;;;;;7.60;1.50;;;;;;;;;;4936642;28;20184;-73
2023/09/14 13:42:22;;;;;;;4.82;1.40;;;;;;;;;;4930092;28;20039;-73
2023/09/14 13:44:48;;;;;;;4.80;1.35;;;;;;;;;;4932736;28;20058;-73
2023/09/14 13:47:14;;;;;;;5.68;1.60;;;;;;;;;;4935874;28;20482;-73
2023/09/14 13:49:41;;;;;;;6.43;1.60;;;;;;;;;;4930355;28;20055;-73
2023/09/14 13:52:07;;;;;;;5.95;1.40;;;;;;;;;;4932599;28;20808;-71
2023/09/14 13:54:33;;;;;;;6.32;1.70;;;;;;;;;;4932590;28;20617;-72
2023/09/14 13:56:59;;;;;;;6.10;1.50;;;;;;;;;;4936152;28;20701;-72
2023/09/14 13:59:25;;;;;;;7.60;1.65;;;;;;;;;;4935830;28;20046;-72
2023/09/14 14:01:52;;;;;;;7.10;1.50;;;;;;;;;;4937149;28;21058;-72
2023/09/14 14:04:18;;;;;;;8.88;1.70;;;;;;;;;;4937331;28;20181;-72
2023/09/14 14:06:45;;;;;;;5.70;1.40;;;;;;;;;;4940664;28;20456;-73
2023/09/14 14:09:11;;;;;;;4.60;1.27;;;;;;;;;;4942360;28;20022;-72
2023/09/14 14:11:38;;;;;;;3.95;1.42;;;;;;;;;;4940430;28;21010;-72
2023/09/14 14:14:04;;;;;;;4.82;1.48;;;;;;;;;;4944112;28;20508;-73
2023/09/14 14:16:30;;;;;;;5.28;1.35;;;;;;;;;;4942347;28;20042;-72
2023/09/14 14:18:57;;;;;;;5.75;1.60;;;;;;;;;;4944268;28;20126;-73
2023/09/14 14:21:29;;;;;;;7.15;1.55;;;;;;;;;;4940260;28;20038;-73
2023/09/14 14:23:55;;;;;;;5.22;1.40;;;;;;;;;;4944453;28;20053;-73
2023/09/14 14:26:21;;;;;;;4.35;1.38;;;;;;;;;;4940191;28;20766;-73
2023/09/14 14:28:48;;;;;;;6.97;1.67;;;;;;;;;;4943039;28;20058;-73
2023/09/14 14:31:14;;;;;;;6.72;1.35;;;;;;;;;;4942940;28;20058;-73
2023/09/14 14:33:41;;;;;;;8.13;1.35;;;;;;;;;;4937776;28;20695;-73
2023/09/14 14:36:07;;;;;;;6.13;1.45;;;;;;;;;;4942154;28;20035;-73
2023/09/14 14:38:33;;;;;;;4.43;1.33;;;;;;;;;;4940023;28;20030;-72